sensor_id;sensor_type;location;lat;lon;timestamp;temperature;humidity
56172;DHT22;42052;41.634;-0.946;2022-09-09T00:02:04;26.50;50.70
56172;DHT22;42052;41.634;-0.946;2022-09-09T00:04:36;26.50;50.70
56172;DHT22;42052;41.634;-0.946;2022-09-09T00:07:23;26.50;50.60
56172;DHT22;42052;41.634;-0.946;2022-09-09T00:10:03;26.50;50.60
56172;DHT22;42052;41.634;-0.946;2022-09-09T00:12:39;26.50;50.60
56172;DHT22;42052;41.634;-0.946;2022-09-09T00:15:29;26.50;50.60
56172;DHT22;42052;41.634;-0.946;2022-09-09T00:18:13;26.50;50.60
56172;DHT22;42052;41.634;-0.946;2022-09-09T00:23:28;26.50;50.60
56172;DHT22;42052;41.634;-0.946;2022-09-09T00:28:45;26.50;50.70
56172;DHT22;42052;41.634;-0.946;2022-09-09T00:31:28;26.50;50.70
56172;DHT22;42052;41.634;-0.946;2022-09-09T00:34:00;26.60;50.90
56172;DHT22;42052;41.634;-0.946;2022-09-09T00:36:28;26.60;50.90
56172;DHT22;42052;41.634;-0.946;2022-09-09T00:39:00;26.60;50.90
56172;DHT22;42052;41.634;-0.946;2022-09-09T00:44:32;26.60;51.00
56172;DHT22;42052;41.634;-0.946;2022-09-09T00:50:03;26.60;51.00
56172;DHT22;42052;41.634;-0.946;2022-09-09T00:57:52;26.70;51.10
56172;DHT22;42052;41.634;-0.946;2022-09-09T01:00:25;26.70;51.10
56172;DHT22;42052;41.634;-0.946;2022-09-09T01:11:33;26.70;51.20
56172;DHT22;42052;41.634;-0.946;2022-09-09T01:14:24;26.70;51.10
56172;DHT22;42052;41.634;-0.946;2022-09-09T01:16:58;26.70;51.20
56172;DHT22;42052;41.634;-0.946;2022-09-09T01:19:33;26.70;51.20
56172;DHT22;42052;41.634;-0.946;2022-09-09T01:28:16;26.70;51.40
56172;DHT22;42052;41.634;-0.946;2022-09-09T01:30:43;26.80;51.40
56172;DHT22;42052;41.634;-0.946;2022-09-09T01:33:17;26.70;51.40
56172;DHT22;42052;41.634;-0.946;2022-09-09T01:35:50;26.80;51.40
56172;DHT22;42052;41.634;-0.946;2022-09-09T01:38:20;26.70;51.40
56172;DHT22;42052;41.634;-0.946;2022-09-09T01:40:47;26.70;51.40
56172;DHT22;42052;41.634;-0.946;2022-09-09T01:43:13;26.80;51.50
56172;DHT22;42052;41.634;-0.946;2022-09-09T01:45:41;26.80;51.40
56172;DHT22;42052;41.634;-0.946;2022-09-09T01:48:08;26.80;51.40
56172;DHT22;42052;41.634;-0.946;2022-09-09T01:50:34;26.80;51.50
56172;DHT22;42052;41.634;-0.946;2022-09-09T01:53:01;26.80;51.50
56172;DHT22;42052;41.634;-0.946;2022-09-09T01:55:31;26.80;51.40
56172;DHT22;42052;41.634;-0.946;2022-09-09T02:06:46;26.80;51.30
56172;DHT22;42052;41.634;-0.946;2022-09-09T02:09:18;26.80;51.20
56172;DHT22;42052;41.634;-0.946;2022-09-09T02:11:47;26.80;51.20
56172;DHT22;42052;41.634;-0.946;2022-09-09T02:14:19;26.80;51.20
56172;DHT22;42052;41.634;-0.946;2022-09-09T02:17:01;26.90;51.20
56172;DHT22;42052;41.634;-0.946;2022-09-09T02:19:36;26.80;51.10
56172;DHT22;42052;41.634;-0.946;2022-09-09T02:22:04;26.90;51.10
56172;DHT22;42052;41.634;-0.946;2022-09-09T02:24:34;26.80;51.00
56172;DHT22;42052;41.634;-0.946;2022-09-09T02:27:02;26.90;50.90
56172;DHT22;42052;41.634;-0.946;2022-09-09T02:29:33;26.90;50.90
56172;DHT22;42052;41.634;-0.946;2022-09-09T02:32:06;26.90;50.80
56172;DHT22;42052;41.634;-0.946;2022-09-09T02:34:36;26.80;50.70
56172;DHT22;42052;41.634;-0.946;2022-09-09T02:37:03;26.80;50.60
56172;DHT22;42052;41.634;-0.946;2022-09-09T02:39:30;26.80;50.60
56172;DHT22;42052;41.634;-0.946;2022-09-09T02:41:55;26.80;50.50
56172;DHT22;42052;41.634;-0.946;2022-09-09T02:44:21;26.80;50.50
56172;DHT22;42052;41.634;-0.946;2022-09-09T02:47:07;26.80;50.40
56172;DHT22;42052;41.634;-0.946;2022-09-09T02:50:06;26.90;50.40
56172;DHT22;42052;41.634;-0.946;2022-09-09T02:58:04;26.80;50.00
56172;DHT22;42052;41.634;-0.946;2022-09-09T03:00:31;26.80;50.00
56172;DHT22;42052;41.634;-0.946;2022-09-09T03:02:58;26.80;49.90
56172;DHT22;42052;41.634;-0.946;2022-09-09T03:05:24;26.90;50.00
56172;DHT22;42052;41.634;-0.946;2022-09-09T03:07:50;26.80;49.90
56172;DHT22;42052;41.634;-0.946;2022-09-09T03:10:16;26.80;49.90
56172;DHT22;42052;41.634;-0.946;2022-09-09T03:12:43;26.80;49.80
56172;DHT22;42052;41.634;-0.946;2022-09-09T03:15:09;26.90;49.90
56172;DHT22;42052;41.634;-0.946;2022-09-09T03:17:35;26.80;49.80
56172;DHT22;42052;41.634;-0.946;2022-09-09T03:20:05;26.80;49.80
56172;DHT22;42052;41.634;-0.946;2022-09-09T03:22:33;26.80;49.70
56172;DHT22;42052;41.634;-0.946;2022-09-09T03:24:58;26.80;49.70
56172;DHT22;42052;41.634;-0.946;2022-09-09T03:27:24;26.80;49.60
56172;DHT22;42052;41.634;-0.946;2022-09-09T03:29:50;26.90;49.70
56172;DHT22;42052;41.634;-0.946;2022-09-09T03:32:17;26.90;49.60
56172;DHT22;42052;41.634;-0.946;2022-09-09T03:34:44;26.90;49.60
56172;DHT22;42052;41.634;-0.946;2022-09-09T03:37:10;26.90;49.50
56172;DHT22;42052;41.634;-0.946;2022-09-09T03:39:36;26.80;49.50
56172;DHT22;42052;41.634;-0.946;2022-09-09T03:42:02;26.90;49.50
56172;DHT22;42052;41.634;-0.946;2022-09-09T03:44:30;26.80;49.40
56172;DHT22;42052;41.634;-0.946;2022-09-09T03:46:56;26.90;49.50
56172;DHT22;42052;41.634;-0.946;2022-09-09T03:49:22;26.80;49.40
56172;DHT22;42052;41.634;-0.946;2022-09-09T03:51:48;26.80;49.40
56172;DHT22;42052;41.634;-0.946;2022-09-09T03:54:14;26.80;49.30
56172;DHT22;42052;41.634;-0.946;2022-09-09T03:56:40;26.80;49.30
56172;DHT22;42052;41.634;-0.946;2022-09-09T03:59:07;26.90;49.40
56172;DHT22;42052;41.634;-0.946;2022-09-09T04:01:34;26.90;49.30
56172;DHT22;42052;41.634;-0.946;2022-09-09T04:04:00;26.80;49.20
56172;DHT22;42052;41.634;-0.946;2022-09-09T04:06:28;26.80;49.10
56172;DHT22;42052;41.634;-0.946;2022-09-09T04:08:54;26.90;49.20
56172;DHT22;42052;41.634;-0.946;2022-09-09T04:11:21;26.80;49.10
56172;DHT22;42052;41.634;-0.946;2022-09-09T04:13:47;26.80;49.10
56172;DHT22;42052;41.634;-0.946;2022-09-09T04:16:15;26.80;49.00
56172;DHT22;42052;41.634;-0.946;2022-09-09T04:18:41;26.80;49.00
56172;DHT22;42052;41.634;-0.946;2022-09-09T04:21:09;26.80;48.80
56172;DHT22;42052;41.634;-0.946;2022-09-09T04:23:36;26.90;48.90
56172;DHT22;42052;41.634;-0.946;2022-09-09T04:26:02;26.80;48.60
56172;DHT22;42052;41.634;-0.946;2022-09-09T04:28:30;26.80;48.80
56172;DHT22;42052;41.634;-0.946;2022-09-09T04:30:57;26.80;48.40
56172;DHT22;42052;41.634;-0.946;2022-09-09T04:33:24;26.80;48.20
56172;DHT22;42052;41.634;-0.946;2022-09-09T04:35:53;26.80;48.20
56172;DHT22;42052;41.634;-0.946;2022-09-09T04:38:20;26.80;48.30
56172;DHT22;42052;41.634;-0.946;2022-09-09T04:40:49;26.80;48.30
56172;DHT22;42052;41.634;-0.946;2022-09-09T04:43:15;26.80;48.20
56172;DHT22;42052;41.634;-0.946;2022-09-09T04:45:47;26.80;48.10
56172;DHT22;42052;41.634;-0.946;2022-09-09T04:48:13;26.80;48.10
56172;DHT22;42052;41.634;-0.946;2022-09-09T04:50:40;26.80;48.10
56172;DHT22;42052;41.634;-0.946;2022-09-09T04:53:06;26.80;48.00
56172;DHT22;42052;41.634;-0.946;2022-09-09T04:55:33;26.80;48.00
56172;DHT22;42052;41.634;-0.946;2022-09-09T04:58:08;26.80;48.00
56172;DHT22;42052;41.634;-0.946;2022-09-09T05:00:37;26.80;48.00
56172;DHT22;42052;41.634;-0.946;2022-09-09T05:03:04;26.80;47.90
56172;DHT22;42052;41.634;-0.946;2022-09-09T05:05:30;26.80;47.80
56172;DHT22;42052;41.634;-0.946;2022-09-09T05:08:04;26.80;47.80
56172;DHT22;42052;41.634;-0.946;2022-09-09T05:10:31;26.80;47.70
56172;DHT22;42052;41.634;-0.946;2022-09-09T05:12:57;26.80;47.70
56172;DHT22;42052;41.634;-0.946;2022-09-09T05:15:23;26.80;48.60
56172;DHT22;42052;41.634;-0.946;2022-09-09T05:17:49;26.80;48.00
56172;DHT22;42052;41.634;-0.946;2022-09-09T05:20:15;26.80;48.10
56172;DHT22;42052;41.634;-0.946;2022-09-09T05:22:41;26.80;48.80
56172;DHT22;42052;41.634;-0.946;2022-09-09T05:25:07;26.70;48.00
56172;DHT22;42052;41.634;-0.946;2022-09-09T05:27:36;26.80;48.20
56172;DHT22;42052;41.634;-0.946;2022-09-09T05:30:02;26.80;48.20
56172;DHT22;42052;41.634;-0.946;2022-09-09T05:32:29;26.80;48.20
56172;DHT22;42052;41.634;-0.946;2022-09-09T05:34:59;26.80;48.30
56172;DHT22;42052;41.634;-0.946;2022-09-09T05:37:27;26.80;48.30
56172;DHT22;42052;41.634;-0.946;2022-09-09T05:39:53;26.80;48.30
56172;DHT22;42052;41.634;-0.946;2022-09-09T05:42:18;26.80;48.30
56172;DHT22;42052;41.634;-0.946;2022-09-09T05:44:44;26.80;48.30
56172;DHT22;42052;41.634;-0.946;2022-09-09T05:47:10;26.80;48.40
56172;DHT22;42052;41.634;-0.946;2022-09-09T05:49:37;26.80;48.30
56172;DHT22;42052;41.634;-0.946;2022-09-09T05:52:03;26.80;48.40
56172;DHT22;42052;41.634;-0.946;2022-09-09T05:54:29;26.80;48.40
56172;DHT22;42052;41.634;-0.946;2022-09-09T05:56:55;26.80;48.40
56172;DHT22;42052;41.634;-0.946;2022-09-09T05:59:21;26.80;48.40
56172;DHT22;42052;41.634;-0.946;2022-09-09T06:01:49;26.80;48.40
56172;DHT22;42052;41.634;-0.946;2022-09-09T06:04:15;26.80;48.40
56172;DHT22;42052;41.634;-0.946;2022-09-09T06:06:41;26.80;48.40
56172;DHT22;42052;41.634;-0.946;2022-09-09T06:09:08;26.80;48.40
56172;DHT22;42052;41.634;-0.946;2022-09-09T06:11:37;26.80;48.40
56172;DHT22;42052;41.634;-0.946;2022-09-09T06:14:04;26.80;48.40
56172;DHT22;42052;41.634;-0.946;2022-09-09T06:16:31;26.80;48.40
56172;DHT22;42052;41.634;-0.946;2022-09-09T06:19:00;26.80;48.40
56172;DHT22;42052;41.634;-0.946;2022-09-09T06:21:34;26.80;48.40
56172;DHT22;42052;41.634;-0.946;2022-09-09T06:24:04;26.80;48.40
56172;DHT22;42052;41.634;-0.946;2022-09-09T06:26:32;26.80;48.50
56172;DHT22;42052;41.634;-0.946;2022-09-09T06:28:59;26.80;48.40
56172;DHT22;42052;41.634;-0.946;2022-09-09T06:31:28;26.90;48.50
56172;DHT22;42052;41.634;-0.946;2022-09-09T06:33:58;26.80;48.40
56172;DHT22;42052;41.634;-0.946;2022-09-09T06:36:26;26.80;48.50
56172;DHT22;42052;41.634;-0.946;2022-09-09T06:38:53;26.80;48.50
56172;DHT22;42052;41.634;-0.946;2022-09-09T06:41:20;26.80;48.50
56172;DHT22;42052;41.634;-0.946;2022-09-09T06:43:47;26.80;48.50
56172;DHT22;42052;41.634;-0.946;2022-09-09T06:46:17;26.80;48.50
56172;DHT22;42052;41.634;-0.946;2022-09-09T06:48:44;26.80;48.50
56172;DHT22;42052;41.634;-0.946;2022-09-09T06:51:19;26.80;48.50
56172;DHT22;42052;41.634;-0.946;2022-09-09T06:53:47;26.80;48.50
56172;DHT22;42052;41.634;-0.946;2022-09-09T06:58:47;26.80;48.50
56172;DHT22;42052;41.634;-0.946;2022-09-09T07:01:18;26.80;48.50
56172;DHT22;42052;41.634;-0.946;2022-09-09T07:03:50;26.80;48.50
56172;DHT22;42052;41.634;-0.946;2022-09-09T07:06:21;26.80;48.50
56172;DHT22;42052;41.634;-0.946;2022-09-09T07:08:57;26.80;48.50
56172;DHT22;42052;41.634;-0.946;2022-09-09T07:11:26;26.80;48.50
56172;DHT22;42052;41.634;-0.946;2022-09-09T07:13:53;26.80;48.50
56172;DHT22;42052;41.634;-0.946;2022-09-09T07:16:21;26.80;48.50
56172;DHT22;42052;41.634;-0.946;2022-09-09T07:18:50;26.80;48.50
56172;DHT22;42052;41.634;-0.946;2022-09-09T07:21:16;26.80;48.50
56172;DHT22;42052;41.634;-0.946;2022-09-09T07:23:42;26.90;48.60
56172;DHT22;42052;41.634;-0.946;2022-09-09T07:26:20;26.80;48.50
56172;DHT22;42052;41.634;-0.946;2022-09-09T07:28:46;26.80;48.50
56172;DHT22;42052;41.634;-0.946;2022-09-09T07:31:18;26.90;48.60
56172;DHT22;42052;41.634;-0.946;2022-09-09T07:33:46;26.90;48.50
56172;DHT22;42052;41.634;-0.946;2022-09-09T07:36:14;26.80;48.50
56172;DHT22;42052;41.634;-0.946;2022-09-09T07:38:41;26.80;48.50
56172;DHT22;42052;41.634;-0.946;2022-09-09T07:41:14;26.80;48.50
56172;DHT22;42052;41.634;-0.946;2022-09-09T07:43:43;26.80;48.50
56172;DHT22;42052;41.634;-0.946;2022-09-09T07:46:10;26.90;48.70
56172;DHT22;42052;41.634;-0.946;2022-09-09T07:48:38;26.90;48.60
56172;DHT22;42052;41.634;-0.946;2022-09-09T07:51:09;26.90;48.60
56172;DHT22;42052;41.634;-0.946;2022-09-09T07:53:38;26.90;48.60
56172;DHT22;42052;41.634;-0.946;2022-09-09T07:56:10;26.80;48.50
56172;DHT22;42052;41.634;-0.946;2022-09-09T07:58:37;26.90;48.60
56172;DHT22;42052;41.634;-0.946;2022-09-09T08:01:12;26.90;48.60
56172;DHT22;42052;41.634;-0.946;2022-09-09T08:03:38;26.80;48.60
56172;DHT22;42052;41.634;-0.946;2022-09-09T08:06:07;26.90;48.60
56172;DHT22;42052;41.634;-0.946;2022-09-09T08:08:34;26.90;48.70
56172;DHT22;42052;41.634;-0.946;2022-09-09T08:11:06;26.80;48.60
56172;DHT22;42052;41.634;-0.946;2022-09-09T08:13:33;26.90;48.60
56172;DHT22;42052;41.634;-0.946;2022-09-09T08:16:18;26.90;48.60
56172;DHT22;42052;41.634;-0.946;2022-09-09T08:18:44;26.90;48.60
56172;DHT22;42052;41.634;-0.946;2022-09-09T08:21:21;26.90;48.60
56172;DHT22;42052;41.634;-0.946;2022-09-09T08:23:48;26.90;48.70
56172;DHT22;42052;41.634;-0.946;2022-09-09T08:26:17;26.90;48.60
56172;DHT22;42052;41.634;-0.946;2022-09-09T08:28:45;26.90;48.60
56172;DHT22;42052;41.634;-0.946;2022-09-09T08:31:16;26.90;48.70
56172;DHT22;42052;41.634;-0.946;2022-09-09T08:33:42;26.90;48.60
56172;DHT22;42052;41.634;-0.946;2022-09-09T08:36:11;26.90;48.60
56172;DHT22;42052;41.634;-0.946;2022-09-09T08:38:37;26.90;48.70
56172;DHT22;42052;41.634;-0.946;2022-09-09T08:57:50;26.90;48.70
56172;DHT22;42052;41.634;-0.946;2022-09-09T09:00:18;26.90;48.60
56172;DHT22;42052;41.634;-0.946;2022-09-09T09:03:15;26.90;48.60
56172;DHT22;42052;41.634;-0.946;2022-09-09T09:06:00;26.90;48.60
56172;DHT22;42052;41.634;-0.946;2022-09-09T09:10:56;26.90;48.60
56172;DHT22;42052;41.634;-0.946;2022-09-09T09:13:45;26.90;49.40
56172;DHT22;42052;41.634;-0.946;2022-09-09T09:18:49;26.90;48.60
56172;DHT22;42052;41.634;-0.946;2022-09-09T09:23:59;26.90;48.50
56172;DHT22;42052;41.634;-0.946;2022-09-09T09:26:35;26.90;48.50
56172;DHT22;42052;41.634;-0.946;2022-09-09T09:29:10;26.90;48.50
56172;DHT22;42052;41.634;-0.946;2022-09-09T09:31:37;26.90;48.50
56172;DHT22;42052;41.634;-0.946;2022-09-09T09:34:03;26.90;48.50
56172;DHT22;42052;41.634;-0.946;2022-09-09T09:36:52;26.90;48.50
56172;DHT22;42052;41.634;-0.946;2022-09-09T09:39:30;26.90;48.50
56172;DHT22;42052;41.634;-0.946;2022-09-09T09:41:56;26.90;48.50
56172;DHT22;42052;41.634;-0.946;2022-09-09T09:44:24;26.90;48.50
56172;DHT22;42052;41.634;-0.946;2022-09-09T09:46:51;26.90;48.40
56172;DHT22;42052;41.634;-0.946;2022-09-09T09:49:17;26.90;48.50
56172;DHT22;42052;41.634;-0.946;2022-09-09T09:51:43;26.90;48.40
56172;DHT22;42052;41.634;-0.946;2022-09-09T09:54:22;26.90;48.40
56172;DHT22;42052;41.634;-0.946;2022-09-09T09:56:51;26.90;48.40
56172;DHT22;42052;41.634;-0.946;2022-09-09T10:01:54;27.00;48.40
56172;DHT22;42052;41.634;-0.946;2022-09-09T10:04:32;27.00;48.40
56172;DHT22;42052;41.634;-0.946;2022-09-09T10:06:58;27.00;48.40
56172;DHT22;42052;41.634;-0.946;2022-09-09T10:09:35;26.90;48.30
56172;DHT22;42052;41.634;-0.946;2022-09-09T10:14:45;27.00;48.40
56172;DHT22;42052;41.634;-0.946;2022-09-09T10:31:29;27.00;49.00
56172;DHT22;42052;41.634;-0.946;2022-09-09T10:36:26;27.00;48.20
56172;DHT22;42052;41.634;-0.946;2022-09-09T10:39:03;27.00;48.20
56172;DHT22;42052;41.634;-0.946;2022-09-09T10:42:17;27.00;48.20
56172;DHT22;42052;41.634;-0.946;2022-09-09T10:55:24;27.00;48.20
56172;DHT22;42052;41.634;-0.946;2022-09-09T10:57:53;27.00;48.20
56172;DHT22;42052;41.634;-0.946;2022-09-09T11:00:42;27.00;48.20
56172;DHT22;42052;41.634;-0.946;2022-09-09T11:03:28;27.10;48.20
56172;DHT22;42052;41.634;-0.946;2022-09-09T11:06:05;27.00;48.20
56172;DHT22;42052;41.634;-0.946;2022-09-09T11:08:35;27.10;48.20
56172;DHT22;42052;41.634;-0.946;2022-09-09T11:11:06;27.00;48.10
56172;DHT22;42052;41.634;-0.946;2022-09-09T11:16:30;27.00;48.10
56172;DHT22;42052;41.634;-0.946;2022-09-09T11:24:55;27.10;48.20
56172;DHT22;42052;41.634;-0.946;2022-09-09T11:30:11;27.10;48.10
56172;DHT22;42052;41.634;-0.946;2022-09-09T11:40:58;27.10;48.10
56172;DHT22;42052;41.634;-0.946;2022-09-09T11:43:31;27.10;48.10
56172;DHT22;42052;41.634;-0.946;2022-09-09T11:46:01;27.10;48.10
56172;DHT22;42052;41.634;-0.946;2022-09-09T11:48:36;27.10;48.10
56172;DHT22;42052;41.634;-0.946;2022-09-09T11:53:36;27.10;48.10
56172;DHT22;42052;41.634;-0.946;2022-09-09T11:56:13;27.10;48.20
56172;DHT22;42052;41.634;-0.946;2022-09-09T11:58:57;27.10;48.20
56172;DHT22;42052;41.634;-0.946;2022-09-09T12:01:30;27.10;48.80
56172;DHT22;42052;41.634;-0.946;2022-09-09T12:07:00;27.20;48.20
56172;DHT22;42052;41.634;-0.946;2022-09-09T12:14:55;27.20;48.10
56172;DHT22;42052;41.634;-0.946;2022-09-09T12:17:23;27.20;48.20
56172;DHT22;42052;41.634;-0.946;2022-09-09T12:20:11;27.20;48.10
56172;DHT22;42052;41.634;-0.946;2022-09-09T12:23:03;27.20;48.10
56172;DHT22;42052;41.634;-0.946;2022-09-09T12:34:16;27.20;48.10
56172;DHT22;42052;41.634;-0.946;2022-09-09T12:36:46;27.20;48.10
56172;DHT22;42052;41.634;-0.946;2022-09-09T12:39:43;27.20;48.10
56172;DHT22;42052;41.634;-0.946;2022-09-09T12:42:20;27.20;48.10
56172;DHT22;42052;41.634;-0.946;2022-09-09T12:44:53;27.20;48.10
56172;DHT22;42052;41.634;-0.946;2022-09-09T12:47:26;27.20;48.00
56172;DHT22;42052;41.634;-0.946;2022-09-09T12:49:55;27.20;48.00
56172;DHT22;42052;41.634;-0.946;2022-09-09T12:52:40;27.20;48.00
56172;DHT22;42052;41.634;-0.946;2022-09-09T12:55:06;27.30;48.10
56172;DHT22;42052;41.634;-0.946;2022-09-09T12:57:38;27.20;48.00
56172;DHT22;42052;41.634;-0.946;2022-09-09T13:00:12;27.20;48.00
56172;DHT22;42052;41.634;-0.946;2022-09-09T13:05:22;27.20;48.00
56172;DHT22;42052;41.634;-0.946;2022-09-09T13:07:48;27.30;48.20
56172;DHT22;42052;41.634;-0.946;2022-09-09T13:10:21;27.30;48.20
56172;DHT22;42052;41.634;-0.946;2022-09-09T13:12:47;27.30;48.20
56172;DHT22;42052;41.634;-0.946;2022-09-09T13:15:21;27.30;48.30
56172;DHT22;42052;41.634;-0.946;2022-09-09T13:17:54;27.30;48.40
56172;DHT22;42052;41.634;-0.946;2022-09-09T13:20:20;27.30;48.30
56172;DHT22;42052;41.634;-0.946;2022-09-09T13:22:48;27.30;48.40
56172;DHT22;42052;41.634;-0.946;2022-09-09T13:25:20;27.30;48.40
56172;DHT22;42052;41.634;-0.946;2022-09-09T13:27:59;27.30;48.40
56172;DHT22;42052;41.634;-0.946;2022-09-09T13:30:30;27.30;48.40
56172;DHT22;42052;41.634;-0.946;2022-09-09T13:33:24;27.30;48.40
56172;DHT22;42052;41.634;-0.946;2022-09-09T13:35:59;27.30;48.40
56172;DHT22;42052;41.634;-0.946;2022-09-09T13:38:27;27.30;48.40
56172;DHT22;42052;41.634;-0.946;2022-09-09T13:41:02;27.30;48.40
56172;DHT22;42052;41.634;-0.946;2022-09-09T13:43:44;27.30;48.40
56172;DHT22;42052;41.634;-0.946;2022-09-09T13:46:40;27.30;48.40
56172;DHT22;42052;41.634;-0.946;2022-09-09T13:51:39;27.30;48.40
56172;DHT22;42052;41.634;-0.946;2022-09-09T13:54:08;27.30;48.30
56172;DHT22;42052;41.634;-0.946;2022-09-09T13:56:35;27.30;48.30
56172;DHT22;42052;41.634;-0.946;2022-09-09T13:59:03;27.30;48.30
56172;DHT22;42052;41.634;-0.946;2022-09-09T14:01:29;27.30;48.30
56172;DHT22;42052;41.634;-0.946;2022-09-09T14:03:55;27.40;48.40
56172;DHT22;42052;41.634;-0.946;2022-09-09T14:06:21;27.40;48.40
56172;DHT22;42052;41.634;-0.946;2022-09-09T14:08:49;27.30;48.30
56172;DHT22;42052;41.634;-0.946;2022-09-09T14:11:16;27.40;48.40
56172;DHT22;42052;41.634;-0.946;2022-09-09T14:13:42;27.40;48.40
56172;DHT22;42052;41.634;-0.946;2022-09-09T14:16:08;27.40;48.40
56172;DHT22;42052;41.634;-0.946;2022-09-09T14:18:35;27.40;48.40
56172;DHT22;42052;41.634;-0.946;2022-09-09T14:21:01;27.40;48.40
56172;DHT22;42052;41.634;-0.946;2022-09-09T14:23:28;27.40;48.40
56172;DHT22;42052;41.634;-0.946;2022-09-09T14:25:55;27.40;48.40
56172;DHT22;42052;41.634;-0.946;2022-09-09T14:28:21;27.40;48.40
56172;DHT22;42052;41.634;-0.946;2022-09-09T14:30:47;27.40;48.40
56172;DHT22;42052;41.634;-0.946;2022-09-09T14:33:15;27.40;48.50
56172;DHT22;42052;41.634;-0.946;2022-09-09T14:35:42;27.40;48.30
56172;DHT22;42052;41.634;-0.946;2022-09-09T14:38:09;27.40;49.10
56172;DHT22;42052;41.634;-0.946;2022-09-09T14:40:36;27.40;48.40
56172;DHT22;42052;41.634;-0.946;2022-09-09T14:43:03;27.40;48.40
56172;DHT22;42052;41.634;-0.946;2022-09-09T14:45:30;27.50;48.50
56172;DHT22;42052;41.634;-0.946;2022-09-09T14:47:56;27.50;48.70
56172;DHT22;42052;41.634;-0.946;2022-09-09T14:50:23;27.50;48.60
56172;DHT22;42052;41.634;-0.946;2022-09-09T14:52:49;27.50;48.40
56172;DHT22;42052;41.634;-0.946;2022-09-09T14:55:16;27.50;48.30
56172;DHT22;42052;41.634;-0.946;2022-09-09T14:57:42;27.50;48.20
56172;DHT22;42052;41.634;-0.946;2022-09-09T15:00:10;27.50;47.30
56172;DHT22;42052;41.634;-0.946;2022-09-09T15:02:37;27.50;46.50
56172;DHT22;42052;41.634;-0.946;2022-09-09T15:05:04;27.30;45.70
56172;DHT22;42052;41.634;-0.946;2022-09-09T15:07:30;27.20;45.30
56172;DHT22;42052;41.634;-0.946;2022-09-09T15:09:57;27.00;45.00
56172;DHT22;42052;41.634;-0.946;2022-09-09T15:12:24;26.80;44.70
56172;DHT22;42052;41.634;-0.946;2022-09-09T15:14:49;26.80;44.50
56172;DHT22;42052;41.634;-0.946;2022-09-09T15:17:16;26.60;44.30
56172;DHT22;42052;41.634;-0.946;2022-09-09T15:19:42;26.50;44.30
56172;DHT22;42052;41.634;-0.946;2022-09-09T15:22:08;26.50;44.20
56172;DHT22;42052;41.634;-0.946;2022-09-09T15:24:34;26.30;44.00
56172;DHT22;42052;41.634;-0.946;2022-09-09T15:27:01;26.30;44.00
56172;DHT22;42052;41.634;-0.946;2022-09-09T15:29:27;26.20;43.90
56172;DHT22;42052;41.634;-0.946;2022-09-09T15:31:54;26.10;44.00
56172;DHT22;42052;41.634;-0.946;2022-09-09T15:34:21;26.10;43.90
56172;DHT22;42052;41.634;-0.946;2022-09-09T15:36:47;26.00;43.90
56172;DHT22;42052;41.634;-0.946;2022-09-09T15:44:04;25.70;43.70
56172;DHT22;42052;41.634;-0.946;2022-09-09T15:46:44;25.70;45.50
56172;DHT22;42052;41.634;-0.946;2022-09-09T15:49:13;25.70;48.90
56172;DHT22;42052;41.634;-0.946;2022-09-09T15:51:41;25.80;50.70
56172;DHT22;42052;41.634;-0.946;2022-09-09T15:54:09;25.90;51.80
56172;DHT22;42052;41.634;-0.946;2022-09-09T15:56:35;25.90;52.20
56172;DHT22;42052;41.634;-0.946;2022-09-09T15:59:01;26.00;52.40
56172;DHT22;42052;41.634;-0.946;2022-09-09T16:01:28;26.10;51.50
56172;DHT22;42052;41.634;-0.946;2022-09-09T16:03:56;26.10;49.70
56172;DHT22;42052;41.634;-0.946;2022-09-09T16:06:24;25.90;48.40
56172;DHT22;42052;41.634;-0.946;2022-09-09T16:08:51;25.80;47.60
56172;DHT22;42052;41.634;-0.946;2022-09-09T16:11:22;25.80;47.10
56172;DHT22;42052;41.634;-0.946;2022-09-09T16:13:50;25.60;46.60
56172;DHT22;42052;41.634;-0.946;2022-09-09T16:16:18;25.50;47.00
56172;DHT22;42052;41.634;-0.946;2022-09-09T16:18:50;25.50;48.20
56172;DHT22;42052;41.634;-0.946;2022-09-09T16:21:20;25.50;51.20
56172;DHT22;42052;41.634;-0.946;2022-09-09T16:23:46;25.60;52.50
56172;DHT22;42052;41.634;-0.946;2022-09-09T16:26:14;25.60;52.80
56172;DHT22;42052;41.634;-0.946;2022-09-09T16:28:40;25.80;52.70
56172;DHT22;42052;41.634;-0.946;2022-09-09T16:31:12;25.80;52.50
56172;DHT22;42052;41.634;-0.946;2022-09-09T16:33:40;25.90;51.90
56172;DHT22;42052;41.634;-0.946;2022-09-09T16:36:08;25.90;50.10
56172;DHT22;42052;41.634;-0.946;2022-09-09T16:38:34;25.80;48.50
56172;DHT22;42052;41.634;-0.946;2022-09-09T16:41:02;25.70;47.80
56172;DHT22;42052;41.634;-0.946;2022-09-09T16:43:29;25.50;47.40
56172;DHT22;42052;41.634;-0.946;2022-09-09T16:45:55;25.40;46.90
56172;DHT22;42052;41.634;-0.946;2022-09-09T16:48:21;25.40;49.80
56172;DHT22;42052;41.634;-0.946;2022-09-09T16:50:47;25.40;49.30
56172;DHT22;42052;41.634;-0.946;2022-09-09T16:53:14;25.50;49.10
56172;DHT22;42052;41.634;-0.946;2022-09-09T16:55:41;25.60;49.00
56172;DHT22;42052;41.634;-0.946;2022-09-09T16:58:10;25.60;48.90
56172;DHT22;42052;41.634;-0.946;2022-09-09T17:00:36;25.70;48.90
56172;DHT22;42052;41.634;-0.946;2022-09-09T17:03:02;25.70;48.90
56172;DHT22;42052;41.634;-0.946;2022-09-09T17:05:28;25.80;48.90
56172;DHT22;42052;41.634;-0.946;2022-09-09T17:07:55;25.80;48.80
56172;DHT22;42052;41.634;-0.946;2022-09-09T17:10:24;25.90;48.80
56172;DHT22;42052;41.634;-0.946;2022-09-09T17:12:51;25.90;48.80
56172;DHT22;42052;41.634;-0.946;2022-09-09T17:15:16;25.90;48.70
56172;DHT22;42052;41.634;-0.946;2022-09-09T17:17:44;26.00;48.70
56172;DHT22;42052;41.634;-0.946;2022-09-09T17:20:10;26.00;48.70
56172;DHT22;42052;41.634;-0.946;2022-09-09T17:22:37;26.00;48.60
56172;DHT22;42052;41.634;-0.946;2022-09-09T17:25:03;26.10;48.70
56172;DHT22;42052;41.634;-0.946;2022-09-09T17:27:29;26.10;48.60
56172;DHT22;42052;41.634;-0.946;2022-09-09T17:29:57;26.10;48.60
56172;DHT22;42052;41.634;-0.946;2022-09-09T17:32:24;26.10;48.50
56172;DHT22;42052;41.634;-0.946;2022-09-09T17:34:50;26.20;48.60
56172;DHT22;42052;41.634;-0.946;2022-09-09T17:37:16;26.20;48.60
56172;DHT22;42052;41.634;-0.946;2022-09-09T17:39:42;26.20;48.70
56172;DHT22;42052;41.634;-0.946;2022-09-09T17:42:08;26.30;48.70
56172;DHT22;42052;41.634;-0.946;2022-09-09T17:44:34;26.30;48.70
56172;DHT22;42052;41.634;-0.946;2022-09-09T17:47:00;26.30;49.40
56172;DHT22;42052;41.634;-0.946;2022-09-09T17:49:29;26.30;48.70
56172;DHT22;42052;41.634;-0.946;2022-09-09T17:51:55;26.30;48.70
56172;DHT22;42052;41.634;-0.946;2022-09-09T17:54:21;26.30;48.60
56172;DHT22;42052;41.634;-0.946;2022-09-09T17:56:48;26.40;48.70
56172;DHT22;42052;41.634;-0.946;2022-09-09T17:59:16;26.40;48.60
56172;DHT22;42052;41.634;-0.946;2022-09-09T18:01:44;26.40;48.60
56172;DHT22;42052;41.634;-0.946;2022-09-09T18:04:12;26.40;48.60
56172;DHT22;42052;41.634;-0.946;2022-09-09T18:06:42;26.50;48.70